Latest Weather Observations for Camden

IDN60901

Issued at 10:21 am EDT Wednesday 18 January 2017 (issued every 10 minutes, with the page automatically refreshed every 10 minutes)

About weather observations | Map of Sydney area stations | Latest observations for Sydney area | Other Formats
Station Details ID: 068192 Name: CAMDEN AIRPORT AWS Lat: -34.04 Lon: 150.69 Height: 73.9 m
Data from the previous 72 hours. | See also: Recent months at Camden
Date/Time
EDT
Temp
°C
App
Temp
°C
Dew
Point
°C
Rel
Hum
%
Delta-T
°C
Wind Press
QNH
hPa
Press
MSL
hPa
Rain since
9am
mm
Dir  Spd
km/h
Gust
km/h
Spd
kts
Gust
kts
18/10:00am 38.0 33.2 13.9 24 15.0 NW 32 41 17 22 1005.4 1005.0 0.0
18/09:30am 37.0 33.3 14.9 27 13.9 NW 28 37 15 20 1005.4 1005.0 0.0
18/09:00am 36.5 33.2 15.0 27 13.5 NW 26 39 14 21 1005.9 1005.5 0.0
18/08:30am 35.8 31.3 15.0 29 13.0 NW 32 46 17 25 1006.1 1005.7 0.0
18/08:04am 35.3 30.7 14.6 29 12.9 NW 32 50 17 27 1005.8 1005.4 0.0
18/08:00am 35.2 30.4 14.5 29 12.9 NW 33 48 18 26 1005.9 1005.5 0.0
18/07:45am 35.0 30.1 14.3 29 12.8 NW 33 56 18 30 1005.6 1005.2 0.0
18/07:30am 34.3 30.9 14.7 30 12.2 WNW 26 35 14 19 1005.6 1005.2 0.0
18/07:16am 30.9 32.0 17.9 45 8.3 WNW 9 20 5 11 1005.4 1005.0 0.0
18/07:00am 25.3 29.4 20.8 76 3.0 CALM 0 6 0 3 1005.2 1004.8 0.0
18/06:30am 22.7 25.6 20.6 88 1.4 SE 6 11 3 6 1004.8 1004.4 0.0
18/06:00am 22.3 25.0 20.2 88 1.4 E 6 9 3 5 1004.5 1004.1 0.0
18/05:30am 22.1 25.3 19.8 87 1.5 ESE 2 7 1 4 1004.3 1003.9 0.0
18/05:00am 22.3 24.9 20.0 87 1.5 SSE 6 7 3 4 1004.2 1003.8 0.0
18/04:30am 22.5 25.9 20.2 87 1.5 NE 2 7 1 4 1004.2 1003.8 0.0
18/04:00am 22.9 26.8 20.4 86 1.6 CALM 0 0 0 0 1004.2 1003.8 0.0
18/03:30am 23.0 25.5 19.8 82 2.1 SSW 6 9 3 5 1004.4 1004.0 0.0
18/03:00am 23.6 27.2 19.7 79 2.5 CALM 0 0 0 0 1004.5 1004.1 0.0
18/02:30am 23.5 27.0 19.6 79 2.5 CALM 0 0 0 0 1004.9 1004.5 0.0
18/02:00am 24.7 28.5 20.2 76 2.9 CALM 0 4 0 2 1005.2 1004.8 0.0
18/01:30am 25.2 28.9 20.0 73 3.4 CALM 0 0 0 0 1005.5 1005.1 0.0
18/01:00am 25.5 27.9 20.1 72 3.5 SSE 7 9 4 5 1005.8 1005.4 0.0
18/12:30am 26.3 29.7 19.4 66 4.5 CALM 0 0 0 0 1006.2 1005.8 0.0
18/12:00am 26.8 30.1 19.2 63 4.9 CALM 0 0 0 0 1006.4 1006.0 0.0
 
Date/Time
EDT
Temp
°C
App
Temp
°C
Dew
Point
°C
Rel
Hum
%
Delta-T
°C
Wind Press
QNH
hPa
Press
MSL
hPa
Rain since
9am
mm
Dir  Spd
km/h
Gust
km/h
Spd
kts
Gust
kts
17/11:30pm 27.7 31.0 19.2 60 5.5 CALM 0 4 0 2 1006.9 1006.6 0.0
17/11:00pm 29.2 32.2 19.2 54 6.5 SW 2 6 1 3 1007.3 1007.0 0.0
17/10:30pm 28.9 30.8 18.9 54 6.5 WSW 7 9 4 5 1007.5 1007.2 0.0
17/10:00pm 29.4 30.9 18.8 53 6.9 S 9 11 5 6 1007.4 1007.1 0.0
17/09:30pm 30.4 31.7 18.5 49 7.7 NE 9 13 5 7 1007.7 1007.4 0.0
17/09:00pm 30.8 31.7 18.5 47 8.0 WSW 11 15 6 8 1008.5 1008.2 0.0
17/08:30pm 31.8 32.5 18.0 43 8.9 SE 11 22 6 12 1007.8 1007.5 0.0
17/08:00pm 35.3 34.5 16.1 32 12.2 SE 15 22 8 12 1007.4 1007.1 0.0
17/07:30pm 36.0 36.0 16.2 31 12.6 ESE 11 22 6 12 1006.7 1006.3 0.0
17/07:00pm 37.0 35.4 16.5 29 13.2 ENE 20 30 11 16 1005.9 1005.5 0.0
17/06:30pm 38.1 34.9 15.2 25 14.5 NE 26 33 14 18 1005.6 1005.2 0.0
17/06:00pm 40.6 39.7 10.8 17 17.9 W 6 11 3 6 1005.4 1005.0 0.0
17/05:30pm 40.4 37.4 10.6 17 17.8 WNW 17 24 9 13 1005.6 1005.2 0.0
17/05:00pm 41.7 39.9 10.8 16 18.7 NNW 11 20 6 11 1005.6 1005.2 0.0
17/04:30pm 41.3 38.9 11.3 17 18.2 N 15 28 8 15 1006.0 1005.6 0.0
17/04:00pm 41.5 39.0 9.6 15 18.9 W 13 32 7 17 1006.5 1006.1 0.0
17/03:30pm 40.4 40.6 13.1 20 16.9 ESE 4 17 2 9 1006.9 1006.6 0.0
17/03:00pm 40.0 38.6 13.5 21 16.5 NNW 13 28 7 15 1007.4 1007.1 0.0
17/02:30pm 39.5 39.0 13.8 22 16.0 NNW 9 17 5 9 1007.9 1007.6 0.0
17/02:00pm 38.4 37.4 15.5 26 14.6 N 15 20 8 11 1008.4 1008.1 0.0
17/01:30pm 39.0 39.4 15.4 25 15.0 N 7 17 4 9 1008.9 1008.6 0.0
17/01:00pm 37.7 38.2 15.5 27 14.1 N 7 20 4 11 1009.7 1009.4 0.0
17/12:30pm 36.7 36.9 15.8 29 13.3 NNE 9 15 5 8 1010.2 1009.9 0.0
17/12:00pm 35.4 34.6 16.2 32 12.2 NE 15 22 8 12 1010.8 1010.5 0.0
17/11:30am 33.4 32.8 16.7 36 10.6 NE 15 20 8 11 1011.4 1011.1 0.0
17/11:00am 31.8 32.9 18.0 43 8.9 NE 9 15 5 8 1011.9 1011.6 0.0
17/10:30am 29.3 31.3 17.8 50 7.3 N 4 11 2 6 1012.5 1012.2 0.0
17/10:00am 27.5 28.9 17.4 54 6.4 NW 6 11 3 6 1013.1 1012.8 0.0
17/09:30am 26.1 27.6 17.7 60 5.3 N 6 11 3 6 1013.4 1013.1 0.0
17/09:00am 24.2 26.1 17.7 67 4.1 N 4 7 2 4 1013.7 1013.4 0.0
17/08:30am 22.9 25.3 17.1 70 3.6 CALM 0 0 0 0 1014.1 1013.8 0.0
17/08:00am 21.0 23.5 17.2 79 2.3 CALM 0 0 0 0 1014.4 1014.1 0.0
17/07:30am 19.6 22.0 17.0 85 1.6 CALM 0 0 0 0 1014.3 1014.0 0.0
17/07:00am 17.9 20.5 17.6 98 0.2 CALM 0 0 0 0 1014.3 1014.0 0.0
17/06:39am 16.9 19.1 16.4 97 0.3 CALM 0 0 0 0 1014.0 1013.7 0.0
17/06:30am 16.7 18.8 16.2 97 0.3 CALM 0 0 0 0 1013.9 1013.6 0.0
17/06:00am 16.8 19.0 16.6 99 0.1 CALM 0 0 0 0 1013.7 1013.4 0.0
17/05:58am 17.2 19.6 17.0 99 0.1 CALM 0 0 0 0 1013.7 1013.4 0.0
17/05:57am 17.4 19.9 17.2 99 0.1 CALM 0 0 0 0 1013.7 1013.4 0.0
17/05:42am 17.2 19.6 16.9 98 0.2 CALM 0 0 0 0 1013.6 1013.3 0.0
17/05:30am 17.2 19.5 16.7 97 0.3 CALM 0 2 0 1 1013.7 1013.4 0.0
17/05:00am 17.1 19.2 16.3 95 0.5 CALM 0 0 0 0 1013.5 1013.2 0.0
17/04:40am 17.7 20.2 17.2 97 0.3 CALM 0 0 0 0 1013.3 1013.0 0.0
17/04:30am 17.6 20.0 17.1 97 0.3 CALM 0 0 0 0 1013.3 1013.0 0.0
17/04:21am 17.8 20.3 17.2 96 0.4 CALM 0 0 0 0 1013.2 1012.9 0.0
17/04:00am 17.9 20.3 16.9 94 0.6 CALM 0 0 0 0 1013.2 1012.9 0.0
17/03:30am 18.4 21.0 17.4 94 0.6 CALM 0 0 0 0 1013.5 1013.2 0.0
17/03:10am 18.5 21.0 17.2 92 0.8 CALM 0 0 0 0 1013.7 1013.4 0.0
17/03:00am 18.6 21.0 16.9 90 1.0 CALM 0 0 0 0 1013.8 1013.5 0.0
17/02:34am 18.7 21.2 17.2 91 0.9 CALM 0 0 0 0 1014.0 1013.7 0.0
17/02:30am 18.7 21.2 17.2 91 0.9 CALM 0 0 0 0 1014.0 1013.7 0.0
17/02:00am 18.7 21.1 16.9 89 1.1 CALM 0 0 0 0 1014.2 1013.9 0.0
17/01:30am 19.2 21.7 17.2 88 1.2 CALM 0 0 0 0 1014.5 1014.2 0.0
17/01:00am 19.4 21.8 17.0 86 1.5 CALM 0 0 0 0 1014.7 1014.4 0.0
17/12:30am 19.9 22.4 17.3 85 1.6 CALM 0 0 0 0 1014.9 1014.6 0.0
17/12:00am 20.3 22.9 17.5 84 1.7 CALM 0 0 0 0 1015.1 1014.8 0.0
 
Date/Time
EDT
Temp
°C
App
Temp
°C
Dew
Point
°C
Rel
Hum
%
Delta-T
°C
Wind Press
QNH
hPa
Press
MSL
hPa
Rain since
9am
mm
Dir  Spd
km/h
Gust
km/h
Spd
kts
Gust
kts
16/11:30pm 21.3 23.4 17.3 78 2.5 E 2 7 1 4 1015.3 1015.0 0.0
16/11:00pm 21.8 24.3 17.2 75 2.8 CALM 0 0 0 0 1015.3 1015.0 0.0
16/10:30pm 22.0 23.1 17.2 74 3.0 NE 7 9 4 5 1015.5 1015.1 0.0
16/10:00pm 22.4 24.9 17.3 73 3.1 CALM 0 7 0 4 1015.3 1015.0 0.0
16/09:30pm 22.9 25.1 17.4 71 3.4 E 2 11 1 6 1015.0 1014.7 0.0
16/09:00pm 23.6 24.0 17.3 67 3.9 E 11 17 6 9 1014.8 1014.5 0.0
16/08:30pm 24.3 24.8 17.5 66 4.2 E 11 17 6 9 1014.6 1014.3 0.0
16/08:00pm 25.0 25.0 17.2 62 4.9 E 13 17 7 9 1014.1 1013.8 0.0
16/07:30pm 26.4 25.9 16.9 56 5.9 ENE 15 20 8 11 1013.8 1013.5 0.0
16/07:00pm 27.2 25.7 16.8 53 6.5 ENE 20 28 11 15 1013.3 1013.0 0.0
16/06:30pm 28.2 26.7 16.8 50 7.1 E 20 30 11 16 1012.6 1012.3 0.0
16/06:00pm 29.2 27.3 16.7 46 7.8 ENE 22 33 12 18 1012.1 1011.8 0.0
16/05:30pm 29.3 26.7 16.8 47 7.9 ENE 26 37 14 20 1011.9 1011.6 0.0
16/05:00pm 30.5 28.2 17.6 46 8.2 ENE 26 37 14 20 1011.9 1011.6 0.0
16/04:30pm 31.5 29.7 17.8 44 8.8 ENE 24 35 13 19 1012.0 1011.7 0.0
16/04:00pm 31.9 29.7 17.0 41 9.5 ENE 24 35 13 19 1012.2 1011.9 0.0
16/03:30pm 32.7 30.9 16.1 37 10.4 ENE 20 30 11 16 1012.2 1011.9 0.0
16/03:00pm 33.1 30.8 14.2 32 11.6 ENE 19 30 10 16 1012.4 1012.1 0.0
16/02:30pm 32.3 30.9 13.5 32 11.4 E 13 24 7 13 1012.9 1012.6 0.0
16/02:00pm 31.3 29.0 14.0 35 10.5 NE 19 28 10 15 1013.4 1013.1 0.0
16/01:30pm 31.9 30.8 15.4 37 10.2 NNE 15 26 8 14 1013.8 1013.5 0.0
16/01:00pm 30.5 28.9 15.0 39 9.5 N 17 26 9 14 1014.2 1013.9 0.0
16/12:30pm 30.4 29.3 16.4 43 8.8 NNE 17 26 9 14 1014.7 1014.4 0.0
16/12:00pm 29.7 28.7 16.5 45 8.3 NNE 17 28 9 15 1015.1 1014.8 0.0
16/11:30am 27.5 25.7 15.5 48 7.3 NNE 19 26 10 14 1015.6 1015.2 0.0
16/11:00am 28.0 24.9 15.6 46 7.6 NNE 26 37 14 20 1015.9 1015.5 0.0
16/10:30am 27.6 25.5 16.2 49 7.1 N 22 32 12 17 1016.2 1015.8 0.0
16/10:00am 25.8 23.5 15.8 54 6.1 N 22 33 12 18 1016.6 1016.2 0.0
16/09:30am 24.0 21.4 15.8 60 5.0 N 24 33 13 18 1017.0 1016.6 0.0
16/09:00am 23.6 21.1 16.1 62 4.6 N 24 32 13 17 1017.2 1016.8 0.0
16/08:30am 24.0 22.6 17.0 65 4.3 N 20 28 11 15 1017.3 1016.9 0.0
16/08:00am 22.0 21.4 16.7 72 3.2 NNW 15 19 8 10 1017.4 1017.0 0.0
16/07:30am 20.9 22.1 16.9 78 2.4 NNW 6 9 3 5 1017.3 1016.9 0.0
16/07:00am 19.7 22.0 16.7 83 1.8 CALM 0 0 0 0 1017.1 1016.7 0.0
16/06:30am 18.8 20.9 16.2 85 1.6 CALM 0 0 0 0 1016.8 1016.4 0.0
16/06:00am 19.0 19.7 16.2 84 1.7 NNE 7 9 4 5 1016.5 1016.1 0.0
16/05:30am 19.7 20.1 16.2 80 2.1 NNE 9 11 5 6 1016.4 1016.0 0.0
16/05:00am 20.4 20.8 16.2 77 2.5 NNE 9 11 5 6 1016.2 1015.8 0.0
16/04:30am 21.5 21.6 16.5 73 3.0 NNE 11 13 6 7 1016.2 1015.8 0.0
16/04:00am 21.8 22.3 16.5 72 3.2 NNE 9 13 5 7 1016.0 1015.6 0.0
16/03:30am 21.8 21.9 16.5 72 3.2 N 11 15 6 8 1016.2 1015.8 0.0
16/03:00am 22.0 22.1 16.5 71 3.3 N 11 17 6 9 1016.5 1016.1 0.0
16/02:30am 21.9 22.5 16.8 73 3.1 N 9 11 5 6 1016.7 1016.3 0.0
16/02:00am 21.9 22.9 16.8 73 3.1 N 7 9 4 5 1017.0 1016.6 0.0
16/01:30am 21.9 22.9 16.8 73 3.1 NNW 7 11 4 6 1017.2 1016.8 0.0
16/01:00am 22.1 22.3 16.8 72 3.2 NNW 11 15 6 8 1017.3 1016.9 0.0
16/12:30am 22.4 22.6 16.7 70 3.5 NNE 11 13 6 7 1017.3 1016.9 0.0
16/12:00am 22.5 22.2 16.5 69 3.7 NNE 13 17 7 9 1017.2 1016.8 0.0
 
Date/Time
EDT
Temp
°C
App
Temp
°C
Dew
Point
°C
Rel
Hum
%
Delta-T
°C
Wind Press
QNH
hPa
Press
MSL
hPa
Rain since
9am
mm
Dir  Spd
km/h
Gust
km/h
Spd
kts
Gust
kts
15/11:30pm 22.6 22.3 16.4 68 3.8 NNE 13 19 7 10 1017.0 1016.6 0.0
15/11:00pm 22.7 21.9 16.0 66 4.1 NE 15 20 8 11 1017.0 1016.6 0.0
15/10:30pm 22.8 22.0 16.1 66 4.1 NE 15 20 8 11 1017.0 1016.6 0.0
15/10:00pm 22.7 22.8 16.5 68 3.8 ENE 11 15 6 8 1016.9 1016.5 0.0
15/09:30pm 22.7 22.0 16.5 68 3.8 ENE 15 20 8 11 1016.8 1016.4 0.0
15/09:00pm 22.8 22.1 16.4 67 3.9 ENE 15 24 8 13 1016.6 1016.2 0.0
15/08:30pm 22.8 22.6 16.8 69 3.7 E 13 22 7 12 1016.3 1015.9 0.0
15/08:00pm 22.9 22.3 16.7 68 3.8 E 15 24 8 13 1016.1 1015.7 0.0
15/07:30pm 23.3 22.7 16.6 66 4.1 ENE 15 22 8 12 1015.8 1015.4 0.0
15/07:00pm 23.4 23.1 16.4 64 4.3 ESE 13 20 7 11 1015.5 1015.1 0.0
15/06:30pm 23.9 23.8 16.9 65 4.3 E 13 19 7 10 1015.1 1014.8 0.0
15/06:00pm 24.0 23.3 16.5 63 4.6 ESE 15 24 8 13 1015.0 1014.7 0.0
15/05:30pm 23.5 22.5 16.5 65 4.3 ESE 17 22 9 12 1015.0 1014.7 0.0
15/05:00pm 24.6 23.0 16.6 61 4.9 ESE 20 28 11 15 1015.1 1014.8 0.0
15/04:30pm 25.0 23.9 16.4 59 5.3 ESE 17 24 9 13 1015.2 1014.9 0.0
15/04:00pm 25.0 24.3 16.4 59 5.3 E 15 24 8 13 1015.5 1015.1 0.0
15/03:30pm 24.8 23.6 16.0 58 5.4 SE 17 24 9 13 1015.6 1015.2 0.0
15/03:00pm 24.8 24.1 16.5 60 5.1 E 15 26 8 14 1015.6 1015.2 0.0
15/02:34pm 25.3 23.8 16.2 57 5.6 ESE 19 33 10 18 1015.7 1015.3 0.0
15/02:30pm 25.2 23.6 16.4 58 5.4 ESE 20 33 11 18 1015.7 1015.3 0.0
15/02:15pm 25.8 24.0 16.1 55 6.0 ESE 20 33 11 18 1015.7 1015.3 0.0
15/02:00pm 27.6 26.5 17.2 53 6.5 ESE 19 33 10 18 1015.6 1015.2 0.0
15/01:30pm 25.7 23.9 16.0 55 5.9 ESE 20 33 11 18 1015.7 1015.3 0.0
15/01:00pm 28.1 27.0 17.3 52 6.8 ESE 19 30 10 16 1015.6 1015.2 0.0
15/12:30pm 25.9 24.4 16.2 55 6.0 ESE 19 28 10 15 1015.6 1015.2 0.0
15/12:00pm 27.5 25.6 15.8 48 7.2 E 20 30 11 16 1015.3 1015.0 0.0
15/11:30am 27.8 26.9 12.6 39 8.9 NNE 9 17 5 9 1015.3 1015.0 0.0
15/11:00am 27.8 26.8 15.5 47 7.5 ENE 15 22 8 12 1015.5 1015.1 0.0
15/10:30am 27.4 27.2 15.7 48 7.2 ESE 11 17 6 9 1015.5 1015.1 0.0

Latest Capital City Observations: Canberra | Sydney | Melbourne | Brisbane | Adelaide | Perth | Hobart | Darwin

Other Formats:

Comma delimited format used in spreadsheet applications
http://www.bom.gov.au/fwo/IDN60901/IDN60901.94755.axf

JavaScript Object Notation format (JSON) in row-major order
http://www.bom.gov.au/fwo/IDN60901/IDN60901.94755.json